Wetterdaten: Woche 25.08.14 - 31.08.14 (KW35)
Datum Zeit Temp. Aussen +5cm Feuchte Auss Luftdruck Regen Sonnenschein Regendauer UV Solar Windben
25.08.2014 00:00 10,4 C 9,0 C 96 % 1018,0 hPa 0,0 l/m 0,00 h 0,00 h 0,0 UV-I 0 W/m 0,0 km/h (0 Bft)
25.08.2014 01:00 9,7 C 8,5 C 97 % 1017,6 hPa 0,0 l/m 0,00 h 0,00 h 0,0 UV-I 0 W/m 0,0 km/h (0 Bft)
25.08.2014 02:00 9,8 C 9,0 C 97 % 1017,0 hPa 0,0 l/m 0,00 h 0,00 h 0,0 UV-I 0 W/m 0,0 km/h (0 Bft)
25.08.2014 03:00 10,2 C 9,4 C 97 % 1016,7 hPa 0,0 l/m 0,00 h 0,00 h 0,0 UV-I 0 W/m 0,0 km/h (0 Bft)
25.08.2014 04:00 10,2 C 9,4 C 96 % 1016,1 hPa 0,0 l/m 0,00 h 0,00 h 0,0 UV-I 0 W/m 0,0 km/h (0 Bft)
25.08.2014 05:00 10,1 C 9,4 C 97 % 1015,6 hPa 0,0 l/m 0,00 h 0,03 h 0,0 UV-I 0 W/m 0,8 km/h (0 Bft)
25.08.2014 06:00 10,0 C 9,2 C 97 % 1015,3 hPa 0,0 l/m 0,00 h 0,00 h 0,0 UV-I 8 W/m 2,9 km/h (1 Bft)
25.08.2014 07:00 10,2 C 9,2 C 97 % 1015,1 hPa 0,0 l/m 0,33 h 0,00 h 0,0 UV-I 60 W/m 14,3 km/h (3 Bft)
25.08.2014 08:00 11,1 C 10,5 C 96 % 1014,9 hPa 0,0 l/m 0,97 h 0,00 h 0,0 UV-I 225 W/m 19,8 km/h (4 Bft)
25.08.2014 09:00 13,3 C 12,8 C 91 % 1014,9 hPa 0,0 l/m 1,00 h 0,00 h 0,5 UV-I 304 W/m 10,2 km/h (2 Bft)
25.08.2014 10:00 14,9 C 14,8 C 86 % 1014,7 hPa 0,0 l/m 0,37 h 0,00 h 0,6 UV-I 247 W/m 3,8 km/h (1 Bft)
25.08.2014 11:00 16,2 C 15,9 C 80 % 1014,6 hPa 0,0 l/m 0,00 h 0,00 h 1,0 UV-I 257 W/m 4,7 km/h (1 Bft)
25.08.2014 12:00 17,6 C 17,6 C 74 % 1014,0 hPa 0,0 l/m 0,70 h 0,00 h 2,0 UV-I 392 W/m 5,0 km/h (1 Bft)
25.08.2014 13:00 19,3 C 19,3 C 66 % 1013,3 hPa 0,0 l/m 0,90 h 0,00 h 2,9 UV-I 563 W/m 10,8 km/h (2 Bft)
25.08.2014 14:00 19,0 C 18,5 C 66 % 1013,0 hPa 0,0 l/m 0,07 h 0,00 h 1,0 UV-I 218 W/m 4,1 km/h (1 Bft)
25.08.2014 15:00 18,6 C 17,3 C 69 % 1012,5 hPa 0,0 l/m 0,00 h 0,10 h 0,6 UV-I 155 W/m 1,1 km/h (0 Bft)
25.08.2014 16:00 17,3 C 14,7 C 80 % 1012,0 hPa 0,2 l/m 0,00 h 0,97 h 0,0 UV-I 95 W/m 0,0 km/h (0 Bft)
25.08.2014 17:00 15,9 C 13,6 C 86 % 1011,4 hPa 0,2 l/m 0,00 h 0,83 h 0,0 UV-I 59 W/m 17,3 km/h (3 Bft)
25.08.2014 18:00 14,9 C 13,3 C 93 % 1010,9 hPa 1,2 l/m 0,00 h 0,97 h 0,0 UV-I 31 W/m 1,0 km/h (0 Bft)
25.08.2014 19:00 14,5 C 13,2 C 96 % 1010,4 hPa 1,4 l/m 0,00 h 1,00 h 0,0 UV-I 11 W/m 9,0 km/h (2 Bft)
25.08.2014 20:00 14,2 C 12,8 C 98 % 1009,7 hPa 1,2 l/m 0,00 h 1,00 h 0,0 UV-I 6 W/m 9,4 km/h (2 Bft)
25.08.2014 21:00 13,9 C 12,8 C 98 % 1009,1 hPa 1,8 l/m 0,00 h 1,00 h 0,0 UV-I 0 W/m 12,9 km/h (3 Bft)
25.08.2014 22:00 13,9 C 12,8 C 99 % 1008,4 hPa 1,0 l/m 0,00 h 1,00 h 0,0 UV-I 0 W/m 20,3 km/h (4 Bft)
25.08.2014 23:00 13,9 C 12,8 C 99 % 1007,3 hPa 1,2 l/m 0,00 h 1,00 h 0,0 UV-I 0 W/m 21,3 km/h (4 Bft)
26.08.2014 00:00 13,8 C 12,8 C 99 % 1006,2 hPa 1,6 l/m 0,00 h 0,98 h 0,0 UV-I 0 W/m 25,4 km/h (4 Bft)
26.08.2014 01:00 13,6 C 12,4 C 99 % 1005,4 hPa 2,4 l/m 0,00 h 1,00 h 0,0 UV-I 0 W/m 22,8 km/h (4 Bft)
26.08.2014 02:00 13,6 C 12,2 C 99 % 1004,3 hPa 3,0 l/m 0,00 h 1,00 h 0,0 UV-I 0 W/m 20,9 km/h (4 Bft)
26.08.2014 03:00 13,4 C 12,2 C 99 % 1003,5 hPa 2,2 l/m 0,00 h 1,00 h 0,0 UV-I 0 W/m 23,0 km/h (4 Bft)
26.08.2014 04:00 13,3 C 12,2 C 99 % 1002,9 hPa 2,6 l/m 0,00 h 1,00 h 0,0 UV-I 0 W/m 22,8 km/h (4 Bft)
26.08.2014 05:00 13,1 C 12,2 C 99 % 1002,4 hPa 1,0 l/m 0,00 h 0,97 h 0,0 UV-I 0 W/m 23,2 km/h (4 Bft)
26.08.2014 06:00 13,1 C 12,2 C 99 % 1002,7 hPa 1,2 l/m 0,00 h 0,77 h 0,0 UV-I 0 W/m 13,3 km/h (3 Bft)
26.08.2014 07:00 13,1 C 12,2 C 99 % 1003,2 hPa 1,2 l/m 0,00 h 0,83 h 0,0 UV-I 13 W/m 9,6 km/h (2 Bft)
26.08.2014 08:00 13,3 C 12,4 C 100 % 1003,6 hPa 0,0 l/m 0,00 h 0,17 h 0,0 UV-I 43 W/m 17,6 km/h (3 Bft)
26.08.2014 09:00 13,6 C 12,9 C 100 % 1003,9 hPa 0,0 l/m 0,00 h 0,00 h 0,0 UV-I 84 W/m 19,2 km/h (3 Bft)
26.08.2014 10:00 13,9 C 13,0 C 100 % 1004,5 hPa 0,2 l/m 0,00 h 0,57 h 0,0 UV-I 70 W/m 15,0 km/h (3 Bft)
26.08.2014 11:00 14,3 C 13,4 C 99 % 1004,9 hPa 0,4 l/m 0,00 h 0,97 h 0,3 UV-I 120 W/m 21,7 km/h (4 Bft)
26.08.2014 12:00 14,5 C 13,6 C 99 % 1005,3 hPa 0,4 l/m 0,00 h 0,77 h 0,6 UV-I 101 W/m 21,4 km/h (4 Bft)
26.08.2014 13:00 14,2 C 13,0 C 99 % 1005,7 hPa 1,0 l/m 0,00 h 0,77 h 0,0 UV-I 35 W/m 22,0 km/h (4 Bft)
26.08.2014 14:00 14,2 C 13,2 C 99 % 1005,8 hPa 2,4 l/m 0,00 h 1,00 h 0,0 UV-I 59 W/m 20,2 km/h (4 Bft)
26.08.2014 15:00 14,0 C 12,9 C 99 % 1006,0 hPa 1,8 l/m 0,00 h 1,00 h 0,0 UV-I 90 W/m 25,7 km/h (4 Bft)
26.08.2014 16:00 14,0 C 13,0 C 99 % 1006,0 hPa 1,0 l/m 0,00 h 1,00 h 0,0 UV-I 60 W/m 19,6 km/h (3 Bft)
26.08.2014 17:00 14,3 C 13,2 C 99 % 1006,0 hPa 0,6 l/m 0,00 h 1,00 h 0,0 UV-I 87 W/m 29,4 km/h (5 Bft)
26.08.2014 18:00 14,3 C 13,3 C 99 % 1006,1 hPa 0,0 l/m 0,00 h 0,63 h 0,0 UV-I 67 W/m 25,8 km/h (4 Bft)
26.08.2014 19:00 14,1 C 12,7 C 99 % 1006,5 hPa 0,4 l/m 0,00 h 0,60 h 0,0 UV-I 13 W/m 29,9 km/h (5 Bft)
26.08.2014 20:00 13,7 C 12,2 C 98 % 1007,0 hPa 1,2 l/m 0,00 h 1,00 h 0,0 UV-I 4 W/m 31,5 km/h (5 Bft)
26.08.2014 21:00 13,4 C 12,2 C 98 % 1007,9 hPa 0,2 l/m 0,00 h 0,53 h 0,0 UV-I 0 W/m 20,9 km/h (4 Bft)
26.08.2014 22:00 13,4 C 12,2 C 98 % 1008,5 hPa 0,0 l/m 0,00 h 0,30 h 0,0 UV-I 0 W/m 10,7 km/h (2 Bft)
26.08.2014 23:00 13,5 C 12,2 C 98 % 1009,0 hPa 0,0 l/m 0,00 h 0,00 h 0,0 UV-I 0 W/m 7,0 km/h (2 Bft)
27.08.2014 00:00 13,5 C 12,1 C 99 % 1009,5 hPa 0,0 l/m 0,00 h 0,00 h 0,0 UV-I 0 W/m 5,6 km/h (1 Bft)
27.08.2014 01:00 12,9 C 11,6 C 98 % 1010,3 hPa 0,0 l/m 0,00 h 0,00 h 0,0 UV-I 0 W/m 1,2 km/h (1 Bft)
27.08.2014 02:00 12,3 C 10,9 C 98 % 1010,7 hPa 0,0 l/m 0,00 h 0,00 h 0,0 UV-I 0 W/m 2,6 km/h (1 Bft)
27.08.2014 03:00 11,5 C 9,9 C 98 % 1011,3 hPa 0,0 l/m 0,00 h 0,00 h 0,0 UV-I 0 W/m 0,0 km/h (0 Bft)
27.08.2014 04:00 10,4 C 8,7 C 98 % 1012,0 hPa 0,0 l/m 0,00 h 0,00 h 0,0 UV-I 0 W/m 0,0 km/h (0 Bft)
27.08.2014 05:00 9,6 C 7,9 C 98 % 1012,6 hPa 0,0 l/m 0,00 h 0,00 h 0,0 UV-I 0 W/m 0,0 km/h (0 Bft)
27.08.2014 06:00 8,8 C 7,3 C 97 % 1013,2 hPa 0,0 l/m 0,00 h 0,00 h 0,0 UV-I 12 W/m 0,0 km/h (0 Bft)
27.08.2014 07:00 8,4 C 7,7 C 98 % 1013,8 hPa 0,2 l/m 0,90 h 0,00 h 0,0 UV-I 77 W/m 0,0 km/h (0 Bft)
27.08.2014 08:00 9,5 C 9,4 C 98 % 1014,6 hPa 0,0 l/m 1,00 h 0,03 h 0,0 UV-I 219 W/m 0,0 km/h (0 Bft)
27.08.2014 09:00 12,8 C 11,9 C 99 % 1015,1 hPa 0,0 l/m 0,93 h 0,00 h 0,6 UV-I 351 W/m 0,0 km/h (0 Bft)
27.08.2014 10:00 16,4 C 14,4 C 90 % 1015,6 hPa 0,0 l/m 1,00 h 0,00 h 1,6 UV-I 539 W/m 7,2 km/h (2 Bft)
27.08.2014 11:00 18,6 C 16,6 C 75 % 1015,9 hPa 0,0 l/m 1,00 h 0,00 h 2,6 UV-I 635 W/m 21,0 km/h (4 Bft)
27.08.2014 12:00 19,9 C 18,2 C 64 % 1016,2 hPa 0,0 l/m 0,83 h 0,00 h 3,3 UV-I 603 W/m 28,8 km/h (5 Bft)
27.08.2014 13:00 20,8 C 19,2 C 59 % 1016,1 hPa 0,0 l/m 1,00 h 0,00 h 3,7 UV-I 727 W/m 20,3 km/h (4 Bft)
27.08.2014 14:00 21,5 C 19,5 C 55 % 1016,0 hPa 0,0 l/m 1,00 h 0,00 h 3,4 UV-I 675 W/m 27,0 km/h (4 Bft)
27.08.2014 15:00 21,8 C 20,0 C 54 % 1016,0 hPa 0,0 l/m 1,00 h 0,00 h 2,6 UV-I 597 W/m 25,1 km/h (4 Bft)
27.08.2014 16:00 21,9 C 20,1 C 53 % 1015,8 hPa 0,0 l/m 1,00 h 0,00 h 1,6 UV-I 479 W/m 17,9 km/h (3 Bft)
27.08.2014 17:00 21,7 C 19,1 C 54 % 1015,7 hPa 0,0 l/m 1,00 h 0,00 h 0,8 UV-I 347 W/m 14,3 km/h (3 Bft)
27.08.2014 18:00 20,8 C 17,8 C 60 % 1015,7 hPa 0,0 l/m 0,65 h 0,00 h 0,0 UV-I 170 W/m 7,7 km/h (2 Bft)
27.08.2014 19:00 19,7 C 16,6 C 66 % 1015,6 hPa 0,0 l/m 0,20 h 0,00 h 0,0 UV-I 62 W/m 2,6 km/h (1 Bft)
27.08.2014 20:00 17,2 C 14,3 C 78 % 1015,7 hPa 0,0 l/m 0,03 h 0,00 h 0,0 UV-I 16 W/m 0,0 km/h (0 Bft)
27.08.2014 21:00 15,2 C 12,7 C 87 % 1015,8 hPa 0,0 l/m 0,00 h 0,00 h 0,0 UV-I 0 W/m 0,0 km/h (0 Bft)
27.08.2014 22:00 14,2 C 12,0 C 90 % 1015,9 hPa 0,0 l/m 0,00 h 0,00 h 0,0 UV-I 0 W/m 0,0 km/h (0 Bft)
27.08.2014 23:00 13,5 C 11,7 C 92 % 1016,0 hPa 0,0 l/m 0,00 h 0,00 h 0,0 UV-I 0 W/m 0,0 km/h (0 Bft)
28.08.2014 00:00 13,7 C 11,7 C 91 % 1016,0 hPa 0,0 l/m 0,00 h 0,00 h 0,0 UV-I 0 W/m 0,0 km/h (0 Bft)
28.08.2014 01:00 13,3 C 11,6 C 93 % 1015,8 hPa 0,0 l/m 0,00 h 0,00 h 0,0 UV-I 0 W/m 1,5 km/h (1 Bft)
28.08.2014 02:00 13,2 C 11,7 C 94 % 1015,6 hPa 0,0 l/m 0,00 h 0,00 h 0,0 UV-I 0 W/m 8,5 km/h (2 Bft)
28.08.2014 03:00 12,9 C 11,7 C 94 % 1015,5 hPa 0,0 l/m 0,00 h 0,00 h 0,0 UV-I 0 W/m 11,6 km/h (2 Bft)
28.08.2014 04:00 13,1 C 12,0 C 94 % 1015,4 hPa 0,0 l/m 0,00 h 0,00 h 0,0 UV-I 0 W/m 14,8 km/h (3 Bft)
28.08.2014 05:00 12,4 C 11,3 C 95 % 1015,3 hPa 0,0 l/m 0,00 h 0,00 h 0,0 UV-I 0 W/m 10,9 km/h (2 Bft)
28.08.2014 06:00 11,9 C 10,7 C 96 % 1015,3 hPa 0,0 l/m 0,03 h 0,00 h 0,0 UV-I 12 W/m 9,2 km/h (2 Bft)
28.08.2014 07:00 12,1 C 11,1 C 97 % 1015,3 hPa 0,0 l/m 0,83 h 0,00 h 0,0 UV-I 88 W/m 13,8 km/h (3 Bft)
28.08.2014 08:00 14,0 C 12,9 C 96 % 1015,4 hPa 0,0 l/m 1,00 h 0,00 h 0,0 UV-I 269 W/m 18,8 km/h (3 Bft)
28.08.2014 09:00 16,8 C 14,9 C 90 % 1015,4 hPa 0,0 l/m 1,00 h 0,00 h 0,8 UV-I 385 W/m 24,1 km/h (4 Bft)
28.08.2014 10:00 19,8 C 17,9 C 83 % 1015,2 hPa 0,0 l/m 1,00 h 0,00 h 1,8 UV-I 511 W/m 25,2 km/h (4 Bft)
28.08.2014 11:00 21,9 C 20,2 C 75 % 1014,9 hPa 0,0 l/m 1,00 h 0,00 h 2,9 UV-I 608 W/m 26,7 km/h (4 Bft)
28.08.2014 12:00 22,8 C 21,6 C 71 % 1014,5 hPa 0,0 l/m 0,77 h 0,00 h 3,3 UV-I 458 W/m 28,9 km/h (5 Bft)
28.08.2014 13:00 22,9 C 22,2 C 71 % 1014,2 hPa 0,0 l/m 0,73 h 0,00 h 2,7 UV-I 420 W/m 29,7 km/h (5 Bft)
28.08.2014 14:00 22,5 C 21,2 C 73 % 1014,0 hPa 0,0 l/m 0,17 h 0,00 h 1,3 UV-I 212 W/m 18,3 km/h (3 Bft)
28.08.2014 15:00 22,4 C 21,2 C 73 % 1013,9 hPa 0,0 l/m 0,00 h 0,00 h 1,2 UV-I 230 W/m 26,6 km/h (4 Bft)
28.08.2014 16:00 21,6 C 20,7 C 76 % 1013,8 hPa 0,0 l/m 0,00 h 0,00 h 0,6 UV-I 181 W/m 33,0 km/h (5 Bft)
28.08.2014 17:00 21,7 C 20,9 C 78 % 1013,6 hPa 0,0 l/m 0,17 h 0,00 h 0,5 UV-I 192 W/m 27,7 km/h (4 Bft)
28.08.2014 18:00 22,2 C 21,1 C 78 % 1013,1 hPa 0,0 l/m 0,87 h 0,00 h 0,0 UV-I 194 W/m 26,7 km/h (4 Bft)
28.08.2014 19:00 21,4 C 19,7 C 80 % 1012,9 hPa 0,0 l/m 0,03 h 0,00 h 0,0 UV-I 46 W/m 23,9 km/h (4 Bft)
28.08.2014 20:00 20,6 C 18,6 C 84 % 1012,9 hPa 0,0 l/m 0,00 h 0,00 h 0,0 UV-I 9 W/m 11,4 km/h (2 Bft)
28.08.2014 21:00 19,8 C 17,9 C 87 % 1013,2 hPa 0,2 l/m 0,00 h 0,27 h 0,0 UV-I 0 W/m 9,9 km/h (2 Bft)
28.08.2014 22:00 18,7 C 16,7 C 94 % 1013,1 hPa 0,2 l/m 0,00 h 0,43 h 0,0 UV-I 0 W/m 3,8 km/h (1 Bft)
28.08.2014 23:00 18,3 C 16,7 C 96 % 1013,3 hPa 0,4 l/m 0,00 h 0,47 h 0,0 UV-I 0 W/m 16,1 km/h (3 Bft)
29.08.2014 00:00 18,0 C 16,4 C 97 % 1013,9 hPa 0,0 l/m 0,00 h 0,17 h 0,0 UV-I 0 W/m 22,3 km/h (4 Bft)
29.08.2014 01:00 17,4 C 15,6 C 97 % 1014,2 hPa 0,0 l/m 0,00 h 0,00 h 0,0 UV-I 0 W/m 6,1 km/h (2 Bft)
29.08.2014 02:00 17,2 C 15,6 C 97 % 1014,2 hPa 0,0 l/m 0,00 h 0,00 h 0,0 UV-I 0 W/m 10,5 km/h (2 Bft)
29.08.2014 03:00 16,6 C 14,7 C 97 % 1014,4 hPa 0,2 l/m 0,00 h 0,00 h 0,0 UV-I 0 W/m 17,0 km/h (3 Bft)
29.08.2014 04:00 15,7 C 13,8 C 96 % 1014,5 hPa 0,0 l/m 0,00 h 0,00 h 0,0 UV-I 0 W/m 11,6 km/h (2 Bft)
29.08.2014 05:00 15,0 C 13,1 C 96 % 1014,3 hPa 0,0 l/m 0,00 h 0,00 h 0,0 UV-I 0 W/m 6,7 km/h (2 Bft)
29.08.2014 06:00 14,5 C 12,8 C 96 % 1014,4 hPa 0,0 l/m 0,00 h 0,00 h 0,0 UV-I 8 W/m 7,4 km/h (2 Bft)
29.08.2014 07:00 14,5 C 13,2 C 96 % 1014,6 hPa 0,0 l/m 0,00 h 0,00 h 0,0 UV-I 33 W/m 9,9 km/h (2 Bft)
29.08.2014 08:00 15,1 C 14,1 C 96 % 1014,9 hPa 0,0 l/m 0,17 h 0,00 h 0,0 UV-I 82 W/m 12,0 km/h (2 Bft)
29.08.2014 09:00 16,2 C 15,1 C 97 % 1015,1 hPa 0,0 l/m 0,13 h 0,00 h 0,3 UV-I 126 W/m 14,3 km/h (3 Bft)
29.08.2014 10:00 17,4 C 15,9 C 92 % 1015,5 hPa 0,0 l/m 0,07 h 0,00 h 0,4 UV-I 175 W/m 23,1 km/h (4 Bft)
29.08.2014 11:00 17,9 C 16,0 C 86 % 1015,9 hPa 0,0 l/m 0,00 h 0,47 h 0,8 UV-I 208 W/m 24,5 km/h (4 Bft)
29.08.2014 12:00 17,6 C 15,7 C 86 % 1016,1 hPa 0,0 l/m 0,07 h 0,27 h 1,1 UV-I 227 W/m 26,5 km/h (4 Bft)
29.08.2014 13:00 17,6 C 16,0 C 87 % 1016,2 hPa 0,2 l/m 0,17 h 0,27 h 1,4 UV-I 255 W/m 33,1 km/h (5 Bft)
29.08.2014 14:00 17,3 C 16,1 C 87 % 1016,2 hPa 0,0 l/m 0,33 h 0,30 h 1,6 UV-I 298 W/m 28,8 km/h (5 Bft)
29.08.2014 15:00 18,5 C 18,0 C 80 % 1016,0 hPa 0,0 l/m 0,40 h 0,00 h 1,6 UV-I 316 W/m 28,2 km/h (4 Bft)
29.08.2014 16:00 19,0 C 18,3 C 79 % 1015,7 hPa 0,0 l/m 0,53 h 0,00 h 0,9 UV-I 280 W/m 28,1 km/h (4 Bft)
29.08.2014 17:00 19,6 C 18,3 C 76 % 1015,3 hPa 0,0 l/m 1,00 h 0,00 h 0,6 UV-I 264 W/m 29,8 km/h (5 Bft)
29.08.2014 18:00 19,2 C 17,6 C 77 % 1015,2 hPa 0,0 l/m 0,47 h 0,00 h 0,0 UV-I 139 W/m 24,1 km/h (4 Bft)
29.08.2014 19:00 18,4 C 16,5 C 80 % 1015,1 hPa 0,0 l/m 0,00 h 0,00 h 0,0 UV-I 48 W/m 8,4 km/h (2 Bft)
29.08.2014 20:00 17,6 C 15,1 C 82 % 1015,2 hPa 0,0 l/m 0,00 h 0,00 h 0,0 UV-I 11 W/m 7,3 km/h (2 Bft)
29.08.2014 21:00 17,1 C 15,0 C 83 % 1015,4 hPa 0,0 l/m 0,00 h 0,00 h 0,0 UV-I 0 W/m 7,5 km/h (2 Bft)
29.08.2014 22:00 17,0 C 15,4 C 84 % 1015,7 hPa 0,0 l/m 0,00 h 0,13 h 0,0 UV-I 0 W/m 17,7 km/h (3 Bft)
29.08.2014 23:00 17,1 C 15,2 C 83 % 1016,2 hPa 0,0 l/m 0,00 h 0,00 h 0,0 UV-I 0 W/m 20,9 km/h (4 Bft)
30.08.2014 00:00 16,5 C 14,5 C 85 % 1016,2 hPa 0,0 l/m 0,00 h 0,00 h 0,0 UV-I 0 W/m 20,1 km/h (4 Bft)
30.08.2014 01:00 15,8 C 14,0 C 86 % 1016,3 hPa 0,0 l/m 0,00 h 0,00 h 0,0 UV-I 0 W/m 15,8 km/h (3 Bft)
30.08.2014 02:00 15,6 C 14,3 C 88 % 1016,2 hPa 0,0 l/m 0,00 h 0,00 h 0,0 UV-I 0 W/m 25,9 km/h (4 Bft)
30.08.2014 03:00 15,9 C 14,4 C 86 % 1016,0 hPa 0,0 l/m 0,00 h 0,00 h 0,0 UV-I 0 W/m 29,5 km/h (5 Bft)
30.08.2014 04:00 15,9 C 14,4 C 85 % 1015,7 hPa 0,0 l/m 0,00 h 0,00 h 0,0 UV-I 0 W/m 26,5 km/h (4 Bft)
30.08.2014 05:00 16,0 C 14,4 C 85 % 1015,5 hPa 0,0 l/m 0,00 h 0,00 h 0,0 UV-I 0 W/m 24,3 km/h (4 Bft)
30.08.2014 06:00 16,0 C 14,3 C 85 % 1015,4 hPa 0,0 l/m 0,00 h 0,00 h 0,0 UV-I 5 W/m 23,3 km/h (4 Bft)
30.08.2014 07:00 15,6 C 14,1 C 87 % 1015,6 hPa 0,0 l/m 0,00 h 0,00 h 0,0 UV-I 24 W/m 21,7 km/h (4 Bft)
30.08.2014 08:00 15,9 C 14,9 C 87 % 1016,0 hPa 0,0 l/m 0,00 h 0,00 h 0,0 UV-I 52 W/m 29,2 km/h (5 Bft)
30.08.2014 09:00 16,5 C 15,3 C 87 % 1016,0 hPa 0,0 l/m 0,00 h 0,10 h 0,0 UV-I 85 W/m 31,2 km/h (5 Bft)
30.08.2014 10:00 16,9 C 15,9 C 87 % 1016,1 hPa 0,0 l/m 0,00 h 0,00 h 0,5 UV-I 110 W/m 39,0 km/h (6 Bft)
30.08.2014 11:00 17,4 C 16,1 C 86 % 1016,2 hPa 0,0 l/m 0,07 h 0,23 h 0,8 UV-I 149 W/m 45,1 km/h (6 Bft)
30.08.2014 12:00 17,8 C 17,3 C 87 % 1016,0 hPa 0,0 l/m 0,00 h 0,00 h 1,2 UV-I 246 W/m 41,8 km/h (6 Bft)
30.08.2014 13:00 18,8 C 17,8 C 83 % 1015,7 hPa 0,0 l/m 0,00 h 0,00 h 1,0 UV-I 199 W/m 48,9 km/h (6 Bft)
30.08.2014 14:00 19,0 C 17,8 C 83 % 1015,7 hPa 0,0 l/m 0,00 h 0,00 h 0,7 UV-I 174 W/m 42,8 km/h (6 Bft)
30.08.2014 15:00 19,4 C 18,5 C 82 % 1015,4 hPa 0,0 l/m 0,23 h 0,00 h 1,2 UV-I 229 W/m 44,0 km/h (6 Bft)
30.08.2014 16:00 19,3 C 18,0 C 81 % 1015,2 hPa 0,0 l/m 0,00 h 0,00 h 0,3 UV-I 140 W/m 43,7 km/h (6 Bft)
30.08.2014 17:00 18,8 C 17,3 C 83 % 1015,0 hPa 0,0 l/m 0,00 h 0,00 h 0,0 UV-I 59 W/m 34,5 km/h (5 Bft)
30.08.2014 18:00 18,1 C 15,8 C 86 % 1014,9 hPa 2,8 l/m 0,00 h 0,70 h 0,0 UV-I 34 W/m 33,2 km/h (5 Bft)
30.08.2014 19:00 15,9 C 13,9 C 92 % 1014,8 hPa 1,0 l/m 0,00 h 0,47 h 0,0 UV-I 17 W/m 30,4 km/h (5 Bft)
30.08.2014 20:00 15,3 C 13,9 C 95 % 1015,1 hPa 0,0 l/m 0,00 h 0,03 h 0,0 UV-I 7 W/m 15,1 km/h (3 Bft)
30.08.2014 21:00 15,3 C 13,9 C 96 % 1015,6 hPa 0,0 l/m 0,00 h 0,10 h 0,0 UV-I 0 W/m 9,7 km/h (2 Bft)
30.08.2014 22:00 15,1 C 13,5 C 96 % 1015,7 hPa 0,0 l/m 0,00 h 0,00 h 0,0 UV-I 0 W/m 3,9 km/h (1 Bft)
30.08.2014 23:00 14,5 C 13,0 C 96 % 1015,7 hPa 0,0 l/m 0,00 h 0,00 h 0,0 UV-I 0 W/m 2,6 km/h (1 Bft)
31.08.2014 00:00 14,3 C 13,2 C 97 % 1015,6 hPa 0,0 l/m 0,00 h 0,00 h 0,0 UV-I 0 W/m 8,3 km/h (2 Bft)
31.08.2014 01:00 14,3 C 13,0 C 97 % 1015,3 hPa 0,0 l/m 0,00 h 0,00 h 0,0 UV-I 0 W/m 12,4 km/h (3 Bft)
31.08.2014 02:00 14,1 C 12,8 C 97 % 1014,9 hPa 0,0 l/m 0,00 h 0,00 h 0,0 UV-I 0 W/m 14,3 km/h (3 Bft)
31.08.2014 03:00 13,7 C 12,2 C 97 % 1014,5 hPa 0,0 l/m 0,00 h 0,00 h 0,0 UV-I 0 W/m 11,0 km/h (2 Bft)
31.08.2014 04:00 13,4 C 12,1 C 98 % 1014,1 hPa 0,0 l/m 0,00 h 0,00 h 0,0 UV-I 0 W/m 8,3 km/h (2 Bft)
31.08.2014 05:00 13,2 C 12,2 C 98 % 1014,0 hPa 0,0 l/m 0,00 h 0,00 h 0,0 UV-I 0 W/m 5,8 km/h (2 Bft)
31.08.2014 06:00 13,2 C 12,2 C 98 % 1014,0 hPa 0,0 l/m 0,00 h 0,00 h 0,0 UV-I 9 W/m 8,8 km/h (2 Bft)
31.08.2014 07:00 13,3 C 12,5 C 98 % 1014,0 hPa 0,0 l/m 0,17 h 0,00 h 0,0 UV-I 33 W/m 14,0 km/h (3 Bft)
31.08.2014 08:00 13,9 C 13,0 C 98 % 1013,9 hPa 0,0 l/m 0,00 h 0,00 h 0,0 UV-I 62 W/m 17,1 km/h (3 Bft)
31.08.2014 09:00 14,3 C 13,6 C 99 % 1014,1 hPa 0,0 l/m 0,00 h 0,00 h 0,0 UV-I 94 W/m 21,7 km/h (4 Bft)
31.08.2014 10:00 15,0 C 14,7 C 99 % 1014,3 hPa 0,0 l/m 0,10 h 0,00 h 0,5 UV-I 182 W/m 13,2 km/h (3 Bft)
31.08.2014 11:00 16,1 C 15,1 C 99 % 1014,2 hPa 3,0 l/m 0,17 h 0,23 h 1,3 UV-I 242 W/m 14,0 km/h (3 Bft)
31.08.2014 12:00 17,4 C 16,3 C 96 % 1014,0 hPa 0,0 l/m 0,40 h 0,17 h 1,5 UV-I 316 W/m 17,8 km/h (3 Bft)
31.08.2014 13:00 18,0 C 15,4 C 90 % 1013,8 hPa 4,8 l/m 0,13 h 0,40 h 1,2 UV-I 212 W/m 22,4 km/h (4 Bft)
31.08.2014 14:00 18,1 C 16,2 C 88 % 1013,7 hPa 0,0 l/m 0,47 h 0,00 h 2,2 UV-I 450 W/m 27,0 km/h (4 Bft)
31.08.2014 15:00 17,5 C 14,6 C 82 % 1014,1 hPa 3,0 l/m 0,03 h 0,30 h 0,9 UV-I 154 W/m 23,2 km/h (4 Bft)
31.08.2014 16:00 16,0 C 12,4 C 85 % 1014,5 hPa 1,4 l/m 0,00 h 0,32 h 0,0 UV-I 14 W/m 5,7 km/h (1 Bft)
31.08.2014 17:00 15,9 C 13,3 C 86 % 1014,7 hPa 0,0 l/m 0,00 h 0,00 h 0,0 UV-I 0 W/m 0,8 km/h (0 Bft)
31.08.2014 18:00 15,3 C 14,4 C 96 % 1014,6 hPa 0,0 l/m 0,00 h 0,00 h 0,0 UV-I 0 W/m 4,8 km/h (1 Bft)
31.08.2014 19:00 15,0 C 13,2 C 95 % 1015,1 hPa 0,0 l/m 0,00 h 0,00 h 0,0 UV-I 0 W/m 4,1 km/h (1 Bft)
31.08.2014 20:00 14,3 C 11,8 C 93 % 1015,7 hPa 0,4 l/m 0,00 h 0,00 h 0,0 UV-I 0 W/m 0,9 km/h (0 Bft)
31.08.2014 21:00 13,5 C 11,6 C 93 % 1016,3 hPa 0,0 l/m 0,00 h 0,00 h 0,0 UV-I 0 W/m 0,5 km/h (0 Bft)
31.08.2014 22:00 12,8 C 10,8 C 94 % 1016,8 hPa 0,0 l/m 0,00 h 0,00 h 0,0 UV-I 0 W/m 2,0 km/h (1 Bft)
31.08.2014 23:00 12,1 C 10,5 C 94 % 1017,3 hPa 0,0 l/m 0,00 h 0,00 h 0,0 UV-I 0 W/m 2,7 km/h (1 Bft)
Min-Datum _ 27.08.14 27.08.14 27.08.14 26.08.14 - - - - - 25.08.14
_ Min-Zeit 07:22 06:10 16:48 05:04 - - - - - 00:00
Minimum _ 8,3 C 7,2 C 50 % 1002,1 hPa - - - - - 0,0 km/h (0 Bft)
Max-Datum _ 28.08.14 28.08.14 26.08.14 25.08.14 31.08.14 25.08.14 25.08.14 28.08.14 25.08.14 30.08.14
_ Max-Zeit 14:08 12:52 07:10 00:00 13:44 07:26 05:12 12:54 13:52 13:14
Maximum _ 23,4 C 22,8 C 100 % 1018,1 hPa 4,8 l/m 0,03 h 0,03 h 4,3 UV-I 901 W/m 74,2 km/h
W (8 Bft)
Durchschnitt _ 15,7 C 14,2 C 89 % 1013,3 hPa #50,8 l/m #28:35 h #31:40 h 1,4 UV-I 186 W/m 15,7 km/h (3 Bft)
© 2014 W. Hausmann